createdAt,value
2023-02-16T00:01:56.274Z,92.50
2023-02-16T00:04:26.433Z,85.00
2023-02-16T00:06:54.177Z,95.75
2023-02-16T00:09:21.673Z,95.50
2023-02-16T00:12:08.278Z,97.25
2023-02-16T00:14:37.231Z,80.75
2023-02-16T00:17:05.441Z,88.50
2023-02-16T00:19:40.322Z,73.00
2023-02-16T00:22:08.262Z,87.25
2023-02-16T00:24:35.583Z,87.50
2023-02-16T00:27:02.573Z,79.75
2023-02-16T00:29:35.104Z,71.75
2023-02-16T00:32:03.994Z,65.00
2023-02-16T00:34:36.506Z,57.25
2023-02-16T00:37:11.842Z,60.00
2023-02-16T00:39:40.260Z,64.00
2023-02-16T00:42:29.544Z,64.50
2023-02-16T00:44:58.086Z,73.25
2023-02-16T00:47:38.463Z,60.25
2023-02-16T00:50:27.969Z,63.25
2023-02-16T00:52:57.091Z,75.50
2023-02-16T00:55:27.395Z,79.50
2023-02-16T00:57:55.497Z,68.50
2023-02-16T01:00:42.337Z,63.75
2023-02-16T01:03:14.397Z,57.25
2023-02-16T01:05:41.216Z,56.25
2023-02-16T01:08:35.474Z,68.00
2023-02-16T01:11:10.045Z,69.50
2023-02-16T01:13:45.364Z,70.00
2023-02-16T01:16:18.796Z,73.50
2023-02-16T01:18:46.352Z,71.00
2023-02-16T01:21:13.192Z,70.50
2023-02-16T01:23:40.222Z,69.25
2023-02-16T01:26:14.824Z,79.25
2023-02-16T01:28:42.690Z,80.75
2023-02-16T01:31:13.667Z,127.25
2023-02-16T01:33:42.175Z,79.00
2023-02-16T01:36:25.674Z,84.75
2023-02-16T01:38:52.851Z,77.75
2023-02-16T01:41:37.722Z,68.00
2023-02-16T01:44:30.143Z,80.50
2023-02-16T01:47:23.149Z,77.75
2023-02-16T01:49:49.982Z,80.50
2023-02-16T01:52:41.693Z,80.75
2023-02-16T01:55:29.504Z,85.00
2023-02-16T01:58:25.278Z,82.00
2023-02-16T02:00:51.989Z,74.50
2023-02-16T02:03:46.315Z,78.75
2023-02-16T02:06:17.331Z,78.25
2023-02-16T02:09:12.597Z,79.50
2023-02-16T02:12:02.591Z,78.25
2023-02-16T02:14:35.607Z,79.00
2023-02-16T02:17:13.350Z,75.25
2023-02-16T02:20:04.223Z,79.00
2023-02-16T02:23:01.678Z,73.00
2023-02-16T02:26:11.136Z,73.00
2023-02-16T02:28:40.825Z,61.50
2023-02-16T02:31:16.495Z,76.00
2023-02-16T02:34:17.658Z,71.50
2023-02-16T02:37:05.519Z,65.25
2023-02-16T02:40:13.384Z,55.00
2023-02-16T02:42:48.651Z,53.50
2023-02-16T02:45:34.535Z,56.50
2023-02-16T02:48:01.556Z,67.00
2023-02-16T02:51:03.181Z,66.25
2023-02-16T02:53:30.848Z,52.50
2023-02-16T02:56:19.826Z,52.50
2023-02-16T02:59:12.323Z,68.25
2023-02-16T03:01:43.732Z,70.75
2023-02-16T03:04:14.462Z,58.50
2023-02-16T03:06:47.417Z,61.00
2023-02-16T03:09:16.076Z,60.75
2023-02-16T03:12:02.673Z,59.75
2023-02-16T03:14:33.671Z,52.00
2023-02-16T03:17:28.928Z,63.00
2023-02-16T03:20:17.040Z,58.00
2023-02-16T03:23:03.517Z,59.00
2023-02-16T03:25:52.368Z,55.00
2023-02-16T03:28:41.094Z,57.25
2023-02-16T03:31:12.352Z,60.75
2023-02-16T03:33:40.394Z,61.00
2023-02-16T03:36:08.087Z,58.00
2023-02-16T03:38:35.754Z,53.00
2023-02-16T03:41:02.861Z,54.75
2023-02-16T03:43:29.710Z,52.00
2023-02-16T03:45:56.533Z,48.50
2023-02-16T03:48:23.379Z,49.00
2023-02-16T03:50:50.116Z,46.00
2023-02-16T03:53:18.366Z,48.00
2023-02-16T03:55:49.101Z,46.00
2023-02-16T03:58:21.634Z,51.00
2023-02-16T04:00:48.928Z,50.50
2023-02-16T04:03:15.883Z,51.25
2023-02-16T04:05:43.244Z,49.00
2023-02-16T04:08:10.291Z,46.00
2023-02-16T04:10:38.810Z,46.50
2023-02-16T04:13:05.835Z,48.75
2023-02-16T04:15:33.025Z,48.50
2023-02-16T04:18:00.389Z,45.50
2023-02-16T04:20:29.931Z,48.50
2023-02-16T04:22:57.023Z,48.00
2023-02-16T04:25:24.169Z,51.50
2023-02-16T04:27:51.789Z,52.50
2023-02-16T04:30:23.663Z,54.00
2023-02-16T04:32:50.938Z,47.00
2023-02-16T04:35:19.148Z,48.00
2023-02-16T04:37:46.424Z,73.00
2023-02-16T04:40:15.551Z,54.75
2023-02-16T04:42:43.312Z,45.75
2023-02-16T04:45:11.414Z,52.00
2023-02-16T04:47:38.139Z,50.50
2023-02-16T04:50:05.634Z,50.50
2023-02-16T04:52:32.546Z,48.00
2023-02-16T04:54:59.563Z,47.50
2023-02-16T04:57:26.337Z,48.75
2023-02-16T04:59:53.139Z,45.50
2023-02-16T05:02:19.914Z,46.00
2023-02-16T05:04:46.753Z,45.00
2023-02-16T05:07:13.708Z,48.75
2023-02-16T05:09:40.548Z,46.50
2023-02-16T05:12:26.084Z,46.50
2023-02-16T05:14:52.858Z,51.00
2023-02-16T05:17:24.417Z,49.00
2023-02-16T05:19:57.330Z,51.00
2023-02-16T05:22:24.884Z,51.75
2023-02-16T05:24:52.364Z,50.50
2023-02-16T05:27:26.047Z,67.00
2023-02-16T05:29:53.005Z,50.00
2023-02-16T05:32:20.716Z,51.00
2023-02-16T05:34:47.958Z,61.50
2023-02-16T05:37:17.400Z,50.75
2023-02-16T05:39:44.754Z,51.00
2023-02-16T05:42:11.644Z,51.75
2023-02-16T05:44:38.838Z,53.00
2023-02-16T05:47:05.715Z,60.75
2023-02-16T05:49:32.587Z,63.25
2023-02-16T05:51:59.429Z,57.50
2023-02-16T05:54:27.974Z,61.00
2023-02-16T05:56:55.596Z,58.50
2023-02-16T05:59:22.517Z,60.25
2023-02-16T06:01:51.916Z,62.75
2023-02-16T06:04:20.286Z,71.50
2023-02-16T06:06:47.219Z,56.75
2023-02-16T06:09:13.978Z,88.00
2023-02-16T06:11:40.806Z,77.50
2023-02-16T06:14:08.864Z,77.50
2023-02-16T06:16:37.708Z,80.75
2023-02-16T06:19:05.205Z,84.00
2023-02-16T06:21:32.649Z,77.75
2023-02-16T06:23:59.472Z,84.50
2023-02-16T06:26:26.688Z,56.00
2023-02-16T06:28:53.836Z,53.25
2023-02-16T06:31:20.915Z,65.25
2023-02-16T06:33:48.018Z,71.75
2023-02-16T06:36:15.778Z,72.50
2023-02-16T06:38:43.000Z,72.25
2023-02-16T06:41:09.934Z,70.00
2023-02-16T06:43:36.844Z,82.00
2023-02-16T06:46:04.162Z,118.75
2023-02-16T06:48:31.087Z,96.50
2023-02-16T06:50:57.909Z,114.50
2023-02-16T06:53:25.548Z,108.25
2023-02-16T06:55:52.376Z,101.25
2023-02-16T06:58:19.247Z,119.00
2023-02-16T07:00:46.253Z,115.00
2023-02-16T07:03:13.521Z,120.00
2023-02-16T07:05:41.112Z,122.00
2023-02-16T07:08:08.416Z,137.00
2023-02-16T07:10:48.960Z,125.50
2023-02-16T07:13:16.837Z,135.25
2023-02-16T07:15:43.657Z,139.00
2023-02-16T07:18:10.464Z,134.00
2023-02-16T07:20:38.031Z,151.00
2023-02-16T07:23:04.983Z,153.00
2023-02-16T07:25:31.824Z,152.75
2023-02-16T07:27:59.055Z,152.25
2023-02-16T07:30:25.863Z,162.75
2023-02-16T07:32:52.753Z,174.50
2023-02-16T07:35:19.566Z,170.00
2023-02-16T07:37:46.381Z,136.00
2023-02-16T07:40:13.453Z,138.75
2023-02-16T07:42:40.316Z,148.00
2023-02-16T07:45:07.360Z,158.75
2023-02-16T07:47:34.455Z,157.75
2023-02-16T07:50:01.441Z,159.75
2023-02-16T07:52:31.250Z,152.25
2023-02-16T07:55:01.803Z,156.25
2023-02-16T07:57:29.416Z,143.00
2023-02-16T07:59:56.674Z,186.00
2023-02-16T08:02:24.481Z,171.25
2023-02-16T08:04:52.915Z,178.75
2023-02-16T08:07:21.309Z,178.00
2023-02-16T08:09:48.494Z,167.00
2023-02-16T08:12:16.739Z,167.50
2023-02-16T08:14:44.092Z,166.25
2023-02-16T08:17:10.951Z,149.75
2023-02-16T08:19:37.730Z,162.50
2023-02-16T08:22:05.878Z,173.75
2023-02-16T08:24:34.208Z,143.00
2023-02-16T08:27:03.867Z,157.00
2023-02-16T08:29:31.317Z,159.50
2023-02-16T08:31:58.535Z,151.75
2023-02-16T08:34:26.441Z,166.50
2023-02-16T08:36:56.639Z,175.50
2023-02-16T08:39:26.556Z,177.67
2023-02-16T08:41:54.699Z,173.80
2023-02-16T08:44:23.829Z,181.00
2023-02-16T08:46:52.459Z,168.25
2023-02-16T08:49:22.117Z,145.75
2023-02-16T08:51:52.246Z,121.50
2023-02-16T08:54:26.627Z,120.00
2023-02-16T08:56:55.449Z,105.25
2023-02-16T08:59:22.810Z,84.50
2023-02-16T09:01:50.000Z,104.25
2023-02-16T09:04:19.903Z,111.00
2023-02-16T09:06:48.544Z,100.00
2023-02-16T09:09:18.306Z,97.00
2023-02-16T09:11:46.137Z,90.75
2023-02-16T09:14:13.039Z,92.00
2023-02-16T09:16:45.435Z,92.25
2023-02-16T09:19:15.167Z,87.00
2023-02-16T09:21:42.666Z,75.50
2023-02-16T09:24:11.625Z,83.00
2023-02-16T09:26:41.339Z,75.75
2023-02-16T09:29:08.224Z,73.75
2023-02-16T09:31:37.544Z,72.75
2023-02-16T09:34:27.881Z,75.25
2023-02-16T09:36:54.823Z,83.75
2023-02-16T09:39:21.718Z,85.25
2023-02-16T09:41:54.117Z,80.50
2023-02-16T09:44:49.210Z,79.00
2023-02-16T09:47:29.560Z,80.75
2023-02-16T09:49:59.370Z,89.25
2023-02-16T09:52:41.090Z,74.25
2023-02-16T09:55:13.363Z,58.25
2023-02-16T09:58:21.713Z,67.50
2023-02-16T10:00:53.802Z,56.75
2023-02-16T10:03:49.865Z,63.00
2023-02-16T10:06:31.595Z,56.00
2023-02-16T10:09:04.313Z,51.25
2023-02-16T10:11:57.612Z,59.25
2023-02-16T10:14:34.838Z,52.75
2023-02-16T10:17:08.732Z,53.00
2023-02-16T10:19:46.805Z,49.00
2023-02-16T10:22:17.900Z,45.25
2023-02-16T10:24:57.776Z,38.00
2023-02-16T10:27:34.041Z,35.75
2023-02-16T10:30:00.882Z,30.50
2023-02-16T10:32:39.458Z,36.00
2023-02-16T10:35:17.539Z,32.00
2023-02-16T10:37:56.363Z,38.00
2023-02-16T10:40:36.070Z,35.00
2023-02-16T10:43:17.057Z,32.25
2023-02-16T10:45:52.507Z,37.25
2023-02-16T10:48:21.166Z,39.00
2023-02-16T10:51:12.830Z,38.00
2023-02-16T10:54:01.166Z,35.00
2023-02-16T10:56:46.445Z,45.75
2023-02-16T10:59:19.082Z,31.00
2023-02-16T11:01:57.872Z,31.25
2023-02-16T11:04:41.525Z,30.75
2023-02-16T11:07:14.331Z,29.75
2023-02-16T11:09:42.865Z,30.25
2023-02-16T11:12:39.548Z,28.00
2023-02-16T11:15:27.534Z,21.00
2023-02-16T11:18:05.930Z,21.33
2023-02-16T11:20:54.753Z,22.00
2023-02-16T11:23:31.916Z,25.00
2023-02-16T11:26:10.599Z,23.25
2023-02-16T11:28:45.940Z,25.00
2023-02-16T11:31:20.040Z,24.75
2023-02-16T11:33:58.051Z,22.00
2023-02-16T11:36:39.228Z,26.00
2023-02-16T11:39:23.210Z,25.00
2023-02-16T11:41:49.930Z,26.50
2023-02-16T11:44:38.843Z,27.00
2023-02-16T11:47:30.050Z,19.33
2023-02-16T11:50:46.574Z,24.25
2023-02-16T11:53:16.602Z,24.00
2023-02-16T11:55:48.726Z,23.25
2023-02-16T11:58:29.291Z,24.33
2023-02-16T12:00:59.087Z,17.67
2023-02-16T12:03:39.166Z,18.33
2023-02-16T12:06:24.471Z,18.00
2023-02-16T12:08:58.193Z,18.67
2023-02-16T12:11:46.044Z,21.00
2023-02-16T12:14:18.431Z,18.33
2023-02-16T12:16:59.297Z,21.00
2023-02-16T12:19:41.206Z,16.33
2023-02-16T12:22:07.976Z,17.00
2023-02-16T12:25:03.242Z,19.33
2023-02-16T12:27:49.348Z,19.00
2023-02-16T12:30:39.126Z,16.00
2023-02-16T12:33:29.691Z,20.00
2023-02-16T12:36:16.817Z,19.00
2023-02-16T12:38:52.120Z,23.00
2023-02-16T12:41:37.061Z,19.67
2023-02-16T12:44:10.969Z,17.00
2023-02-16T12:46:47.332Z,20.67
2023-02-16T12:49:37.530Z,18.67
2023-02-16T12:52:30.777Z,19.00
2023-02-16T12:55:16.906Z,19.33
2023-02-16T12:57:52.938Z,18.00
2023-02-16T13:00:38.624Z,19.00
2023-02-16T13:03:27.621Z,15.00
2023-02-16T13:06:10.259Z,15.33
2023-02-16T13:08:50.243Z,13.33
2023-02-16T13:11:25.964Z,15.33
2023-02-16T13:13:59.036Z,20.00
2023-02-16T13:16:46.301Z,16.33
2023-02-16T13:19:14.582Z,18.00
2023-02-16T13:24:50.422Z,18.33
2023-02-16T13:27:22.833Z,19.33
2023-02-16T13:30:23.668Z,18.33
2023-02-16T13:32:56.323Z,17.67
2023-02-16T13:35:42.917Z,16.67
2023-02-16T13:38:27.399Z,19.33
2023-02-16T13:41:03.206Z,28.25
2023-02-16T13:43:32.776Z,20.33
2023-02-16T13:46:03.768Z,18.00
2023-02-16T13:48:38.729Z,18.67
2023-02-16T13:51:12.558Z,20.00
2023-02-16T13:53:42.804Z,21.00
2023-02-16T13:56:14.964Z,17.67
2023-02-16T13:58:41.807Z,17.00
2023-02-16T14:01:43.326Z,16.67
2023-02-16T14:04:33.277Z,15.67
2023-02-16T14:07:03.368Z,16.00
2023-02-16T14:09:33.473Z,19.00
2023-02-16T14:12:03.186Z,16.00
2023-02-16T14:14:56.582Z,17.00
2023-02-16T14:17:32.636Z,19.33
2023-02-16T14:20:15.088Z,17.00
2023-02-16T14:22:53.343Z,19.67
2023-02-16T14:25:20.475Z,20.00
2023-02-16T14:27:51.506Z,21.33
2023-02-16T14:30:24.979Z,21.00
2023-02-16T14:33:03.754Z,22.00
2023-02-16T14:35:34.732Z,19.33
2023-02-16T14:38:17.561Z,19.00
2023-02-16T14:40:50.319Z,16.00
2023-02-16T14:43:47.448Z,17.00
2023-02-16T14:46:32.160Z,13.00
2023-02-16T14:49:14.895Z,16.33
2023-02-16T14:51:41.608Z,22.33
2023-02-16T14:54:38.712Z,20.00
2023-02-16T14:57:32.636Z,19.67
2023-02-16T15:00:04.812Z,16.33
2023-02-16T15:02:36.047Z,19.00
2023-02-16T15:05:30.022Z,19.67
2023-02-16T15:08:18.774Z,21.00
2023-02-16T15:10:49.944Z,17.33
2023-02-16T15:13:31.609Z,21.00
2023-02-16T15:16:02.848Z,21.00
2023-02-16T15:18:38.283Z,21.00
2023-02-16T15:21:05.298Z,21.67
2023-02-16T15:23:36.583Z,18.00
2023-02-16T15:26:19.463Z,23.33
2023-02-16T15:28:54.296Z,32.25
2023-02-16T15:31:30.986Z,40.25
2023-02-16T15:34:01.091Z,41.00
2023-02-16T15:36:35.431Z,58.25
2023-02-16T15:39:09.771Z,49.00
2023-02-16T15:41:39.176Z,47.25
2023-02-16T15:44:15.666Z,53.50
2023-02-16T15:46:43.808Z,74.25
2023-02-16T15:49:32.665Z,62.25
2023-02-16T15:52:01.044Z,78.25
2023-02-16T15:54:35.281Z,69.50
2023-02-16T15:57:06.750Z,91.25
2023-02-16T15:59:58.659Z,97.00
2023-02-16T16:02:36.942Z,103.75
2023-02-16T16:05:07.617Z,111.75
2023-02-16T16:07:37.698Z,112.25
2023-02-16T16:10:20.703Z,114.00
2023-02-16T16:12:49.454Z,105.50
2023-02-16T16:15:22.993Z,94.50
2023-02-16T16:17:51.747Z,111.75
2023-02-16T16:20:31.711Z,75.25
2023-02-16T16:23:01.776Z,99.00
2023-02-16T16:25:34.428Z,81.00
2023-02-16T16:28:03.790Z,83.00
2023-02-16T16:30:34.080Z,75.75
2023-02-16T16:33:15.628Z,124.75
2023-02-16T16:35:48.331Z,121.25
2023-02-16T16:38:39.388Z,105.50
2023-02-16T16:41:06.912Z,88.25
2023-02-16T16:43:37.688Z,90.00
2023-02-16T16:46:07.640Z,92.75
2023-02-16T16:48:37.216Z,95.75
2023-02-16T16:51:15.405Z,94.25
2023-02-16T16:53:45.057Z,102.00
2023-02-16T16:56:13.828Z,106.50
2023-02-16T16:58:41.050Z,93.50
2023-02-16T17:01:10.043Z,92.00
2023-02-16T17:03:36.806Z,95.25
2023-02-16T17:06:04.051Z,100.75
2023-02-16T17:08:31.047Z,96.75
2023-02-16T17:10:57.888Z,97.50
2023-02-16T17:13:24.713Z,106.75
2023-02-16T17:15:58.449Z,117.75
2023-02-16T17:18:25.513Z,110.75
2023-02-16T17:20:52.823Z,93.00
2023-02-16T17:23:21.914Z,87.25
2023-02-16T17:25:50.016Z,89.25
2023-02-16T17:28:18.616Z,71.75
2023-02-16T17:30:46.022Z,77.75
2023-02-16T17:33:12.908Z,79.25
2023-02-16T17:35:42.518Z,70.75
2023-02-16T17:38:17.244Z,79.00
2023-02-16T17:40:46.437Z,88.50
2023-02-16T17:43:15.006Z,103.25
2023-02-16T17:45:42.896Z,90.50
2023-02-16T17:48:21.654Z,88.25
2023-02-16T17:50:49.466Z,89.25
2023-02-16T17:53:18.424Z,111.00
2023-02-16T17:55:47.113Z,95.50
2023-02-16T17:58:15.153Z,103.25
2023-02-16T18:00:42.422Z,108.50
2023-02-16T18:03:09.848Z,98.00
2023-02-16T18:05:37.368Z,109.25
2023-02-16T18:08:05.253Z,105.25
2023-02-16T18:10:37.403Z,106.75
2023-02-16T18:13:06.168Z,108.25
2023-02-16T18:15:33.466Z,121.75
2023-02-16T18:18:00.478Z,111.75
2023-02-16T18:20:27.506Z,148.50
2023-02-16T18:22:54.357Z,147.50
2023-02-16T18:25:21.260Z,160.00
2023-02-16T18:27:48.024Z,137.75
2023-02-16T18:30:16.910Z,164.25
2023-02-16T18:32:45.582Z,113.25
2023-02-16T18:35:13.437Z,101.75
2023-02-16T18:37:40.870Z,114.25
2023-02-16T18:40:10.271Z,100.50
2023-02-16T18:42:37.372Z,118.50
2023-02-16T18:45:05.548Z,76.00
2023-02-16T18:47:32.397Z,72.50
2023-02-16T18:49:59.318Z,76.00
2023-02-16T18:52:26.150Z,75.25
2023-02-16T18:54:53.064Z,88.50
2023-02-16T18:57:20.372Z,99.50
2023-02-16T18:59:47.153Z,114.75
2023-02-16T19:02:13.950Z,112.75
2023-02-16T19:04:40.917Z,114.25
2023-02-16T19:07:07.948Z,106.00
2023-02-16T19:09:34.675Z,99.75
2023-02-16T19:12:01.671Z,105.50
2023-02-16T19:14:28.496Z,122.00
2023-02-16T19:16:55.221Z,105.25
2023-02-16T19:19:22.016Z,106.25
2023-02-16T19:21:48.769Z,113.50
2023-02-16T19:24:15.507Z,113.00
2023-02-16T19:26:42.332Z,106.00
2023-02-16T19:29:09.056Z,94.50
2023-02-16T19:31:35.991Z,117.25
2023-02-16T19:34:03.068Z,97.25
2023-02-16T19:36:32.065Z,112.75
2023-02-16T19:38:59.324Z,113.75
2023-02-16T19:41:35.534Z,85.50
2023-02-16T19:44:02.541Z,96.00
2023-02-16T19:46:30.238Z,112.25
2023-02-16T19:48:58.001Z,112.75
2023-02-16T19:51:26.213Z,129.25
2023-02-16T19:53:53.735Z,120.50
2023-02-16T19:56:24.119Z,138.50
2023-02-16T19:58:52.776Z,163.25
2023-02-16T20:01:22.558Z,126.75
2023-02-16T20:03:51.117Z,157.50
2023-02-16T20:06:21.298Z,155.00
2023-02-16T20:08:49.948Z,167.00
2023-02-16T20:11:18.467Z,183.40
2023-02-16T20:13:45.357Z,190.80
2023-02-16T20:16:14.570Z,166.00
2023-02-16T20:18:41.895Z,154.00
2023-02-16T20:21:12.650Z,129.50
2023-02-16T20:23:40.003Z,135.75
2023-02-16T20:26:11.968Z,135.50
2023-02-16T20:28:39.205Z,127.75
2023-02-16T20:31:17.560Z,128.50
2023-02-16T20:33:45.051Z,129.75
2023-02-16T20:36:12.348Z,140.00
2023-02-16T20:38:39.457Z,128.75
2023-02-16T20:41:06.480Z,124.50
2023-02-16T20:43:34.150Z,122.50
2023-02-16T20:46:06.517Z,128.25
2023-02-16T20:48:34.644Z,123.00
2023-02-16T20:51:04.490Z,142.50
2023-02-16T20:53:32.701Z,141.25
2023-02-16T20:56:05.888Z,163.00
2023-02-16T20:58:33.711Z,157.00
2023-02-16T21:01:01.108Z,163.75
2023-02-16T21:03:28.017Z,167.50
2023-02-16T21:05:55.455Z,161.50
2023-02-16T21:08:22.160Z,162.00
2023-02-16T21:10:49.213Z,169.75
2023-02-16T21:13:16.008Z,161.00
2023-02-16T21:15:42.839Z,159.75
2023-02-16T21:18:10.525Z,162.00
2023-02-16T21:20:37.388Z,174.00
2023-02-16T21:23:04.380Z,156.75
2023-02-16T21:25:31.343Z,159.75
2023-02-16T21:27:58.219Z,171.50
2023-02-16T21:30:25.271Z,160.50
2023-02-16T21:32:52.246Z,155.25
2023-02-16T21:35:19.211Z,173.25
2023-02-16T21:37:46.059Z,161.25
2023-02-16T21:40:32.476Z,151.50
2023-02-16T21:42:59.688Z,155.50
2023-02-16T21:45:26.428Z,151.75
2023-02-16T21:48:11.872Z,143.50
2023-02-16T21:50:41.173Z,144.00
2023-02-16T21:53:09.228Z,142.25
2023-02-16T21:55:57.874Z,143.00
2023-02-16T21:58:30.144Z,130.25
2023-02-16T22:00:57.085Z,130.75
2023-02-16T22:03:23.857Z,138.50
2023-02-16T22:05:50.652Z,139.50
2023-02-16T22:08:18.017Z,141.75
2023-02-16T22:10:45.185Z,150.25
2023-02-16T22:13:12.051Z,154.25
2023-02-16T22:15:39.101Z,153.50
2023-02-16T22:18:06.375Z,162.50
2023-02-16T22:20:33.440Z,166.00
2023-02-16T22:23:00.337Z,162.50
2023-02-16T22:25:27.212Z,139.00
2023-02-16T22:27:54.976Z,164.00
2023-02-16T22:30:21.926Z,165.00
2023-02-16T22:32:51.373Z,164.00
2023-02-16T22:35:18.385Z,162.75
2023-02-16T22:37:45.159Z,145.75
2023-02-16T22:40:12.141Z,152.00
2023-02-16T22:42:39.005Z,151.00
2023-02-16T22:45:06.213Z,146.25
2023-02-16T22:47:33.108Z,135.50
2023-02-16T22:49:59.824Z,143.75
2023-02-16T22:52:27.060Z,138.50
2023-02-16T22:54:53.906Z,139.00
2023-02-16T22:57:20.646Z,138.75
2023-02-16T22:59:47.401Z,144.25
2023-02-16T23:02:14.203Z,150.25
2023-02-16T23:04:43.229Z,132.75
2023-02-16T23:07:10.395Z,138.50
2023-02-16T23:09:37.390Z,133.00
2023-02-16T23:12:04.302Z,129.50
2023-02-16T23:14:31.137Z,135.25
2023-02-16T23:16:57.840Z,136.00
2023-02-16T23:19:26.811Z,154.75
2023-02-16T23:21:54.152Z,147.00
2023-02-16T23:24:23.328Z,141.25
2023-02-16T23:26:50.957Z,112.00
2023-02-16T23:29:17.856Z,136.75
2023-02-16T23:31:49.498Z,114.00
2023-02-16T23:34:17.255Z,106.00
2023-02-16T23:36:44.400Z,92.50
2023-02-16T23:39:14.218Z,96.50
2023-02-16T23:41:41.940Z,101.50
2023-02-16T23:44:11.785Z,114.25
2023-02-16T23:46:38.633Z,156.50
2023-02-16T23:49:05.500Z,113.00
2023-02-16T23:51:32.254Z,110.25
2023-02-16T23:53:59.016Z,105.75
2023-02-16T23:56:27.820Z,108.25
2023-02-16T23:58:59.830Z,105.00
